Time;durP1;ratioP1;P1;durP2;ratioP2;P2;SDS_P1;SDS_P2;PMS_P1;PMS_P2;Temp;Humidity;BMP_temperature;BMP_pressure;BME280_temperature;BME280_humidity;BME280_pressure;Samples;Min_cycle;Max_cycle;Signal;HPM_P1;HPM_P2
2023/12/02 00:00:50;;;;;;;41.10;27.20;;;;;;;1.23;100.00;99478.66;88462;280;137994;-76
2023/12/02 00:02:52;;;;;;;35.70;26.00;;;;;;;1.25;100.00;99481.27;88659;280;22541;-76
2023/12/02 00:04:54;;;;;;;31.90;24.00;;;;;;;1.25;100.00;99485.45;88537;281;137532;-74
2023/12/02 00:06:57;;;;;;;34.50;25.00;;;;;;;1.24;100.00;99488.52;88539;282;22596;-76
2023/12/02 00:08:59;;;;;;;34.70;23.80;;;;;;;1.25;100.00;99495.15;88286;283;137215;-77
2023/12/02 00:11:01;;;;;;;35.70;25.10;;;;;;;1.25;100.00;99495.98;88524;282;25106;-76
2023/12/02 00:13:03;;;;;;;36.10;24.40;;;;;;;1.25;100.00;99492.36;88503;273;136906;-74
2023/12/02 00:15:08;;;;;;;31.20;23.00;;;;;;;1.23;100.00;99491.98;88579;273;22544;-75
2023/12/02 00:17:10;;;;;;;38.90;24.10;;;;;;;1.16;100.00;99499.47;88534;281;136891;-75
2023/12/02 00:19:13;;;;;;;29.90;21.00;;;;;;;1.05;100.00;99505.09;88472;279;24010;-75
2023/12/02 00:21:15;;;;;;;28.50;21.50;;;;;;;0.93;100.00;99512.17;88427;280;137047;-74
2023/12/02 00:23:17;;;;;;;31.30;22.50;;;;;;;0.84;100.00;99513.59;88586;282;24055;-78
2023/12/02 00:25:19;;;;;;;33.70;24.50;;;;;;;0.76;100.00;99511.17;88501;282;136677;-75
2023/12/02 00:27:21;;;;;;;34.30;24.90;;;;;;;0.70;100.00;99511.02;88613;275;22718;-76
2023/12/02 00:29:23;;;;;;;38.50;25.80;;;;;;;0.68;100.00;99507.07;88496;280;137026;-81
2023/12/02 00:31:25;;;;;;;37.80;26.10;;;;;;;0.68;100.00;99502.81;88636;280;24055;-75
2023/12/02 00:33:27;;;;;;;36.80;25.70;;;;;;;0.71;100.00;99501.48;88458;280;137958;-77
2023/12/02 00:35:29;;;;;;;36.50;25.10;;;;;;;0.74;100.00;99501.88;88673;280;22539;-72
2023/12/02 00:37:31;;;;;;;36.90;25.60;;;;;;;0.71;100.00;99493.47;88477;280;136811;-72
2023/12/02 00:39:33;;;;;;;34.50;24.40;;;;;;;0.83;100.00;99506.31;88468;278;22530;-73
2023/12/02 00:41:35;;;;;;;35.90;24.50;;;;;;;0.87;100.00;99505.95;88316;281;136735;-75
2023/12/02 00:43:38;;;;;;;36.10;25.20;;;;;;;0.91;100.00;99506.43;88498;275;22523;-75
2023/12/02 00:45:41;;;;;;;37.00;25.90;;;;;;;0.94;100.00;99506.27;88378;273;137981;-77
2023/12/02 00:47:43;;;;;;;35.60;25.30;;;;;;;0.96;100.00;99507.32;88612;273;24054;-76
2023/12/02 00:49:47;;;;;;;38.00;25.70;;;;;;;0.99;100.00;99504.42;88402;281;139407;-76
2023/12/02 00:51:50;;;;;;;36.90;26.00;;;;;;;1.02;100.00;99504.55;88537;281;24027;-76
2023/12/02 00:53:52;;;;;;;35.40;25.10;;;;;;;1.04;100.00;99506.61;88399;281;137063;-75
2023/12/02 00:55:54;;;;;;;38.60;25.40;;;;;;;1.06;100.00;99511.06;88544;281;24027;-73
2023/12/02 00:57:56;;;;;;;38.10;27.30;;;;;;;1.09;100.00;99511.73;88467;280;136668;-75
2023/12/02 00:59:59;;;;;;;36.60;26.60;;;;;;;1.10;100.00;99509.27;88588;280;22722;-75
2023/12/02 01:02:01;;;;;;;36.50;27.00;;;;;;;1.11;100.00;99507.30;88510;281;137784;-74
2023/12/02 01:04:04;;;;;;;34.30;24.70;;;;;;;1.13;100.00;99505.74;88425;275;138589;-73
2023/12/02 01:06:07;;;;;;;36.70;24.40;;;;;;;1.12;100.00;99506.56;88681;281;22563;-74
2023/12/02 01:08:09;;;;;;;33.30;24.50;;;;;;;1.08;100.00;99509.65;88524;279;137658;-72
2023/12/02 01:10:15;;;;;;;36.60;25.00;;;;;;;1.06;100.00;99508.48;88813;274;22534;-74
2023/12/02 01:12:17;;;;;;;38.30;25.60;;;;;;;1.02;100.00;99504.98;88446;281;137603;-76
2023/12/02 01:14:19;;;;;;;36.90;25.30;;;;;;;1.00;100.00;99508.34;88725;281;24152;-76
2023/12/02 01:16:21;;;;;;;34.80;24.10;;;;;;;1.01;100.00;99511.48;88545;273;138497;-75
2023/12/02 01:18:23;;;;;;;41.10;27.50;;;;;;;1.01;100.00;99514.42;88639;281;22534;-72
2023/12/02 01:20:25;;;;;;;34.90;25.10;;;;;;;0.99;100.00;99519.85;88461;281;136863;-74
2023/12/02 01:22:27;;;;;;;39.00;26.00;;;;;;;0.96;100.00;99519.23;88615;277;22510;-71
2023/12/02 01:24:30;;;;;;;37.10;26.10;;;;;;;0.86;100.00;99504.11;88404;277;137013;-76
2023/12/02 01:26:32;;;;;;;36.90;26.90;;;;;;;0.90;100.00;99501.94;88508;282;24027;-74
2023/12/02 01:28:33;;;;;;;37.60;25.40;;;;;;;0.90;100.00;99502.27;88448;281;138651;-75
2023/12/02 01:30:35;;;;;;;40.20;27.20;;;;;;;0.94;100.00;99502.08;88506;281;22523;-74
2023/12/02 01:32:37;;;;;;;33.60;25.30;;;;;;;0.99;100.00;99502.68;88578;281;137173;-75
2023/12/02 01:34:39;;;;;;;34.60;26.00;;;;;;;1.03;100.00;99498.44;88586;280;24265;-74
2023/12/02 01:36:42;;;;;;;39.80;26.30;;;;;;;1.06;100.00;99492.73;88373;280;136908;-74
2023/12/02 01:38:44;;;;;;;37.10;27.00;;;;;;;1.09;100.00;99488.80;88466;281;25146;-74
2023/12/02 01:43:23;;;;;;;33.90;24.50;;;;;;;1.02;100.00;99494.38;87214;300;602915;-74
2023/12/02 01:45:25;;;;;;;36.40;23.90;;;;;;;1.03;100.00;99497.21;87900;292;136168;-75
2023/12/02 01:47:27;;;;;;;32.10;23.10;;;;;;;1.07;100.00;99494.12;87872;291;24144;-76
2023/12/02 01:49:31;;;;;;;32.60;24.10;;;;;;;1.08;100.00;99486.97;88153;287;136113;-73
2023/12/02 01:51:35;;;;;;;29.30;20.70;;;;;;;1.07;100.00;99488.80;88383;286;22494;-75
2023/12/02 01:53:41;;;;;;;25.70;19.80;;;;;;;0.94;100.00;99488.96;88335;284;137589;-73
2023/12/02 01:55:44;;;;;;;29.10;20.60;;;;;;;0.95;100.00;99503.90;88481;285;22539;-77
2023/12/02 01:57:47;;;;;;;27.50;18.90;;;;;;;0.89;100.00;99494.84;87818;284;712303;-72
2023/12/02 01:59:55;;;;;;;28.60;20.40;;;;;;;0.85;100.00;99498.59;88447;275;25146;-72
2023/12/02 02:01:58;;;;;;;27.60;20.50;;;;;;;0.78;100.00;99494.88;88298;283;137252;-73
2023/12/02 02:04:01;;;;;;;24.90;18.50;;;;;;;0.69;100.00;99492.44;88371;275;22776;-74
2023/12/02 02:06:03;;;;;;;26.30;18.00;;;;;;;0.63;100.00;99482.30;88450;283;22542;-73
2023/12/02 02:08:06;;;;;;;28.70;19.00;;;;;;;0.60;100.00;99474.19;88367;283;136651;-74
2023/12/02 02:10:08;;;;;;;26.10;19.60;;;;;;;0.61;100.00;99480.60;88385;280;23853;-77
2023/12/02 02:12:10;;;;;;;30.00;20.30;;;;;;;0.63;100.00;99489.64;88329;275;136862;-78
2023/12/02 02:14:12;;;;;;;28.00;20.90;;;;;;;0.65;100.00;99493.30;88410;280;25437;-75
2023/12/02 02:16:14;;;;;;;25.00;19.10;;;;;;;0.68;100.00;99494.23;88362;281;136839;-74
2023/12/02 02:18:16;;;;;;;26.40;20.20;;;;;;;0.72;100.00;99496.70;88451;283;22594;-76
2023/12/02 02:20:19;;;;;;;26.50;20.80;;;;;;;0.73;100.00;99493.98;88431;281;137004;-76
2023/12/02 02:22:21;;;;;;;27.20;20.20;;;;;;;0.75;100.00;99492.02;88462;275;25086;-73
2023/12/02 02:24:23;;;;;;;28.50;21.20;;;;;;;0.79;100.00;99488.66;88234;277;136633;-73
2023/12/02 02:26:25;;;;;;;27.60;20.10;;;;;;;0.83;100.00;99483.95;88634;277;23746;-75
2023/12/02 02:28:28;;;;;;;29.20;21.00;;;;;;;0.87;100.00;99479.36;88445;276;136370;-75
2023/12/02 02:30:30;;;;;;;30.30;20.70;;;;;;;0.90;100.00;99474.69;88680;273;22524;-76
2023/12/02 02:32:32;;;;;;;27.30;19.70;;;;;;;0.93;100.00;99479.27;88494;280;137313;-74
2023/12/02 02:34:34;;;;;;;25.80;20.20;;;;;;;0.96;100.00;99486.15;88560;272;22531;-74
2023/12/02 02:36:36;;;;;;;27.40;19.60;;;;;;;0.91;100.00;99477.58;88448;274;138165;-75
2023/12/02 02:38:38;;;;;;;26.90;19.80;;;;;;;1.01;100.00;99494.31;88654;272;25236;-75
2023/12/02 02:40:40;;;;;;;25.90;19.00;;;;;;;1.02;100.00;99497.50;88582;277;136736;-74
2023/12/02 02:42:42;;;;;;;27.90;20.20;;;;;;;0.98;100.00;99483.40;88583;281;22523;-75
2023/12/02 02:44:44;;;;;;;28.10;19.90;;;;;;;1.06;100.00;99492.04;88480;273;137886;-75
2023/12/02 02:46:46;;;;;;;26.60;18.30;;;;;;;1.08;100.00;99496.73;88666;272;24167;-71
2023/12/02 02:48:49;;;;;;;25.80;19.60;;;;;;;1.10;100.00;99495.83;88543;280;136517;-75
2023/12/02 02:50:51;;;;;;;26.90;19.70;;;;;;;1.11;100.00;99499.46;88597;277;25147;-74
2023/12/02 02:52:52;;;;;;;26.10;19.40;;;;;;;1.12;100.00;99505.98;88409;273;136710;-73
2023/12/02 02:54:55;;;;;;;28.00;20.80;;;;;;;1.13;100.00;99503.75;88499;277;22560;-75
2023/12/02 02:56:57;;;;;;;26.10;20.50;;;;;;;1.15;100.00;99500.98;88422;281;136266;-73
2023/12/02 02:58:59;;;;;;;28.90;20.60;;;;;;;1.17;100.00;99504.46;88594;281;22891;-73
2023/12/02 03:01:01;;;;;;;27.70;19.70;;;;;;;1.20;100.00;99502.95;88589;273;136336;-74
2023/12/02 03:03:03;;;;;;;27.20;20.50;;;;;;;1.23;100.00;99503.70;88629;274;22531;-74
2023/12/02 03:05:06;;;;;;;29.40;21.60;;;;;;;1.24;100.00;99506.38;88459;278;136422;-73
2023/12/02 03:07:09;;;;;;;28.50;20.80;;;;;;;1.26;100.00;99513.38;88708;281;22525;-73
2023/12/02 03:09:12;;;;;;;27.30;19.40;;;;;;;1.26;100.00;99518.66;88458;281;136302;-75
2023/12/02 03:11:16;;;;;;;27.00;20.00;;;;;;;1.24;100.00;99516.00;88549;274;25262;-74
2023/12/02 03:13:18;;;;;;;27.90;20.50;;;;;;;1.22;100.00;99514.31;88715;282;136205;-75
2023/12/02 03:15:20;;;;;;;29.30;20.90;;;;;;;1.21;100.00;99515.17;88849;281;25280;-75
2023/12/02 03:17:21;;;;;;;27.30;19.50;;;;;;;1.19;100.00;99522.68;88455;280;137814;-74
2023/12/02 03:19:24;;;;;;;31.50;20.90;;;;;;;1.17;100.00;99528.80;88588;280;22571;-75
2023/12/02 03:21:26;;;;;;;29.00;21.70;;;;;;;1.16;100.00;99525.38;88472;273;137918;-73
2023/12/02 03:23:29;;;;;;;29.70;20.30;;;;;;;1.16;100.00;99525.54;88640;274;24027;-74
2023/12/02 03:25:31;;;;;;;28.10;19.60;;;;;;;1.18;100.00;99518.67;88685;281;136734;-74
2023/12/02 03:27:33;;;;;;;29.40;21.00;;;;;;;1.20;100.00;99518.02;88693;277;24054;-74
2023/12/02 03:29:35;;;;;;;29.70;21.80;;;;;;;1.23;100.00;99512.85;88541;281;138311;-74
2023/12/02 03:31:37;;;;;;;27.10;20.10;;;;;;;1.25;100.00;99515.94;88431;274;22557;-73
2023/12/02 03:33:40;;;;;;;30.20;21.40;;;;;;;1.24;100.00;99513.58;88490;281;136343;-70
2023/12/02 03:35:42;;;;;;;30.90;21.20;;;;;;;1.24;100.00;99508.36;88524;274;24057;-72
2023/12/02 03:37:44;;;;;;;30.80;21.00;;;;;;;1.25;100.00;99511.95;88424;279;136508;-71
2023/12/02 03:39:46;;;;;;;27.70;20.20;;;;;;;1.23;100.00;99519.13;88864;281;22534;-72
2023/12/02 03:41:49;;;;;;;30.00;21.00;;;;;;;1.20;100.00;99523.20;88522;277;136609;-73
2023/12/02 03:43:51;;;;;;;28.50;20.30;;;;;;;1.16;100.00;99522.23;88620;280;24014;-71
2023/12/02 03:46:01;;;;;;;30.00;20.60;;;;;;;1.10;100.00;99530.84;88545;273;136440;-73
2023/12/02 03:48:04;;;;;;;34.40;22.90;;;;;;;1.04;100.00;99536.90;88839;277;137505;-70
2023/12/02 03:50:07;;;;;;;39.10;24.00;;;;;;;1.00;100.00;99541.46;89170;280;22482;-73
2023/12/02 03:52:10;;;;;;;35.30;24.40;;;;;;;0.99;100.00;99543.30;88595;274;137571;-74
2023/12/02 03:54:12;;;;;;;35.00;22.70;;;;;;;0.97;100.00;99540.77;88762;281;22535;-72
2023/12/02 03:56:14;;;;;;;39.00;23.70;;;;;;;0.97;100.00;99540.85;89349;280;137867;-73
2023/12/02 03:58:16;;;;;;;36.80;24.10;;;;;;;0.94;100.00;99535.04;89690;273;25118;-72
2023/12/02 04:00:19;;;;;;;36.70;24.10;;;;;;;0.92;100.00;99532.90;89736;281;139334;-72
2023/12/02 04:02:22;;;;;;;36.80;24.90;;;;;;;0.90;100.00;99533.06;89682;273;22536;-73
2023/12/02 04:04:25;;;;;;;35.00;23.10;;;;;;;0.94;100.00;99539.87;89690;280;136136;-71
2023/12/02 04:06:29;;;;;;;;;;;;;;;0.94;100.00;99535.20;89010;273;25222;-71
2023/12/02 04:08:32;;;;;;;37.30;24.30;;;;;;;0.92;100.00;99534.48;88656;280;122691;-73
2023/12/02 04:10:34;;;;;;;33.00;22.80;;;;;;;0.89;100.00;99533.02;88535;282;23542;-71
2023/12/02 04:12:36;;;;;;;42.50;23.90;;;;;;;0.88;100.00;99531.06;88423;282;136680;-73
2023/12/02 04:14:38;;;;;;;39.60;24.60;;;;;;;0.86;100.00;99528.35;88561;282;25098;-71
2023/12/02 04:16:41;;;;;;;36.70;24.00;;;;;;;0.84;100.00;99524.06;88417;281;137347;-72
2023/12/02 04:18:43;;;;;;;41.40;24.40;;;;;;;0.81;100.00;99525.27;88628;281;25090;-72
2023/12/02 04:20:45;;;;;;;42.50;24.60;;;;;;;0.77;100.00;99514.38;88420;274;136584;-72
2023/12/02 04:22:47;;;;;;;41.30;25.60;;;;;;;0.86;100.00;99533.11;88567;278;25115;-72
2023/12/02 04:24:51;;;;;;;43.80;25.90;;;;;;;0.87;100.00;99529.71;88358;281;137545;-73
2023/12/02 04:26:53;;;;;;;42.30;24.90;;;;;;;0.83;100.00;99523.60;88537;275;22533;-72
2023/12/02 04:28:55;;;;;;;41.60;24.80;;;;;;;0.75;100.00;99523.67;88346;275;135885;-70
2023/12/02 04:30:57;;;;;;;42.40;24.80;;;;;;;0.69;100.00;99531.56;88539;274;23012;-71
2023/12/02 04:32:59;;;;;;;40.40;23.80;;;;;;;0.72;100.00;99536.35;88629;281;136754;-74
2023/12/02 04:35:01;;;;;;;38.30;25.90;;;;;;;0.74;100.00;99535.15;88564;274;26721;-73
2023/12/02 04:37:03;;;;;;;39.10;24.80;;;;;;;0.71;100.00;99529.15;88496;281;136931;-73
2023/12/02 04:39:06;;;;;;;45.00;27.50;;;;;;;0.68;100.00;99529.73;88487;277;25191;-74
2023/12/02 04:41:13;;;;;;;42.50;24.10;;;;;;;0.64;100.00;99527.13;88510;280;136164;-74
2023/12/02 04:43:16;;;;;;;42.30;24.20;;;;;;;0.59;100.00;99528.64;88537;280;25292;-74
2023/12/02 04:45:20;;;;;;;40.20;23.70;;;;;;;0.56;100.00;99527.33;88479;275;138381;-73
2023/12/02 04:47:22;;;;;;;45.90;25.70;;;;;;;0.54;100.00;99529.62;88510;273;22534;-74
2023/12/02 04:49:24;;;;;;;37.50;23.90;;;;;;;0.54;100.00;99531.06;88406;273;136651;-73
2023/12/02 04:51:26;;;;;;;38.70;22.60;;;;;;;0.52;100.00;99537.70;88540;273;22643;-75
2023/12/02 04:53:28;;;;;;;39.20;24.30;;;;;;;0.51;100.00;99540.04;88407;277;137411;-74
2023/12/02 04:55:30;;;;;;;38.30;21.80;;;;;;;0.51;100.00;99549.84;88752;273;25288;-76
2023/12/02 04:57:32;;;;;;;43.90;23.90;;;;;;;0.53;100.00;99551.23;88370;281;136767;-71
2023/12/02 04:59:34;;;;;;;33.10;19.80;;;;;;;0.55;100.00;99559.83;88509;273;22530;-71
2023/12/02 05:01:36;;;;;;;37.70;21.60;;;;;;;0.54;100.00;99561.11;88292;273;136560;-73
2023/12/02 05:03:38;;;;;;;35.90;23.00;;;;;;;0.55;100.00;99553.14;88317;274;25342;-70
2023/12/02 05:05:40;;;;;;;41.90;23.20;;;;;;;0.60;100.00;99549.60;88326;277;137550;-74
2023/12/02 05:07:42;;;;;;;39.40;21.40;;;;;;;0.61;100.00;99554.02;88391;275;22531;-72
2023/12/02 05:09:44;;;;;;;30.10;20.30;;;;;;;0.59;100.00;99551.23;88350;276;137034;-75
2023/12/02 05:11:46;;;;;;;30.20;18.90;;;;;;;0.58;100.00;99549.55;88425;277;22535;-74
2023/12/02 05:13:50;;;;;;;30.90;20.40;;;;;;;0.54;100.00;99554.81;88388;274;136807;-74
2023/12/02 05:15:52;;;;;;;31.50;20.80;;;;;;;0.48;100.00;99559.93;88508;274;24023;-73
2023/12/02 05:17:54;;;;;;;34.80;20.70;;;;;;;0.45;100.00;99563.71;88360;274;136830;-74
2023/12/02 05:19:57;;;;;;;32.60;19.00;;;;;;;0.42;100.00;99561.05;88369;274;24049;-74
2023/12/02 05:22:00;;;;;;;34.90;20.50;;;;;;;0.40;100.00;99560.66;88410;281;138350;-74
2023/12/02 05:24:03;;;;;;;34.90;20.70;;;;;;;0.39;100.00;99563.20;88452;281;22606;-76
2023/12/02 05:26:06;;;;;;;30.60;21.10;;;;;;;0.41;100.00;99571.77;88265;281;22555;-75
2023/12/02 05:28:08;;;;;;;35.00;19.70;;;;;;;0.43;100.00;99576.52;88304;280;137666;-77
2023/12/02 05:30:12;;;;;;;27.10;17.90;;;;;;;0.44;100.00;99578.48;88492;273;25149;-74
2023/12/02 05:32:15;;;;;;;29.60;19.00;;;;;;;0.46;100.00;99575.89;88348;274;138364;-74
2023/12/02 05:34:16;;;;;;;34.70;19.60;;;;;;;0.45;100.00;99577.34;88513;277;22550;-76
2023/12/02 05:36:19;;;;;;;32.90;21.60;;;;;;;0.38;100.00;99579.02;88399;281;137202;-76
2023/12/02 05:38:21;;;;;;;35.40;20.40;;;;;;;0.29;100.00;99583.03;88561;274;24713;-76
2023/12/02 05:40:23;;;;;;;34.20;21.80;;;;;;;0.23;100.00;99582.72;88356;280;137556;-75
2023/12/02 05:42:25;;;;;;;33.80;20.60;;;;;;;0.21;100.00;99574.52;88517;274;22527;-77
2023/12/02 05:44:28;;;;;;;39.20;22.60;;;;;;;0.20;100.00;99566.33;88400;281;137086;-78
2023/12/02 05:46:29;;;;;;;33.80;21.70;;;;;;;0.19;100.00;99560.66;88432;277;22548;-80
2023/12/02 05:48:33;;;;;;;34.90;21.20;;;;;;;0.17;100.00;99569.95;88283;280;137223;-77
2023/12/02 05:50:35;;;;;;;39.00;22.70;;;;;;;0.14;100.00;99579.08;88531;279;25282;-75
2023/12/02 05:52:37;;;;;;;37.20;21.90;;;;;;;0.10;100.00;99581.70;88342;278;137311;-73
2023/12/02 05:54:38;;;;;;;35.20;21.80;;;;;;;0.05;100.00;99579.75;88207;275;22798;-77
2023/12/02 05:56:42;;;;;;;38.60;22.90;;;;;;;-0.01;100.00;99578.94;88424;274;136938;-75
2023/12/02 05:58:43;;;;;;;36.60;20.90;;;;;;;-0.08;100.00;99584.23;88606;280;22676;-75
2023/12/02 06:00:46;;;;;;;39.20;21.60;;;;;;;-0.11;100.00;99583.81;88418;277;136807;-75
2023/12/02 06:02:48;;;;;;;37.20;22.40;;;;;;;-0.08;100.00;99591.79;88541;277;25077;-72
2023/12/02 06:04:51;;;;;;;39.60;22.90;;;;;;;-0.05;100.00;99587.80;88368;278;138876;-77
2023/12/02 06:06:53;;;;;;;36.30;22.40;;;;;;;-0.01;100.00;99577.17;88693;273;24014;-75
2023/12/02 06:08:55;;;;;;;35.80;21.90;;;;;;;0.05;100.00;99568.73;88357;281;138585;-78
2023/12/02 06:10:57;;;;;;;36.30;20.70;;;;;;;0.11;100.00;99576.77;88744;277;24015;-77
2023/12/02 06:12:59;;;;;;;34.80;20.10;;;;;;;0.13;100.00;99559.83;88439;274;136797;-79
2023/12/02 06:15:01;;;;;;;37.10;20.80;;;;;;;0.13;100.00;99541.85;88468;277;22537;-77
2023/12/02 06:17:03;;;;;;;34.30;20.60;;;;;;;0.12;100.00;99545.90;88264;274;137194;-72
2023/12/02 06:19:05;;;;;;;32.60;19.30;;;;;;;0.12;100.00;99545.40;88473;273;25241;-75
2023/12/02 06:21:11;;;;;;;32.50;18.50;;;;;;;0.13;100.00;99555.46;88244;274;138014;-77
2023/12/02 06:23:13;;;;;;;35.00;19.20;;;;;;;0.12;100.00;99554.81;88485;274;23506;-78
2023/12/02 06:25:15;;;;;;;31.20;19.20;;;;;;;0.13;100.00;99562.80;88373;281;136831;-79
2023/12/02 06:27:17;;;;;;;33.30;20.80;;;;;;;0.12;100.00;99567.76;88464;281;22735;-76
2023/12/02 06:29:20;;;;;;;28.80;16.90;;;;;;;0.08;100.00;99563.95;88371;281;136973;-76
2023/12/02 06:31:23;;;;;;;38.20;22.80;;;;;;;-0.01;100.00;99563.02;88321;282;22805;-78
2023/12/02 06:33:25;;;;;;;36.30;21.00;;;;;;;-0.07;100.00;99562.87;88923;281;137828;-74
2023/12/02 06:35:30;;;;;;;39.20;22.30;;;;;;;-0.06;100.00;99570.77;88461;274;25138;-76
2023/12/02 06:37:32;;;;;;;41.00;24.90;;;;;;;-0.01;100.00;99575.43;88515;277;137289;-76
2023/12/02 06:39:34;;;;;;;38.60;23.30;;;;;;;0.04;100.00;99575.29;88410;281;25762;-76
2023/12/02 06:41:36;;;;;;;35.90;22.10;;;;;;;0.07;100.00;99577.81;88340;273;137210;-78
2023/12/02 06:43:39;;;;;;;39.30;23.90;;;;;;;0.05;100.00;99572.75;88405;274;26096;-77
2023/12/02 06:45:41;;;;;;;38.60;22.00;;;;;;;-0.01;100.00;99567.23;89244;281;136926;-75
2023/12/02 06:47:44;;;;;;;39.80;23.50;;;;;;;-0.06;100.00;99570.06;88455;278;22629;-78
2023/12/02 06:49:46;;;;;;;36.90;22.50;;;;;;;-0.05;100.00;99574.56;88222;275;136966;-74
2023/12/02 06:51:48;;;;;;;38.70;24.60;;;;;;;-0.02;100.00;99571.84;88425;274;26240;-76
2023/12/02 06:53:51;;;;;;;38.70;22.10;;;;;;;-0.02;100.00;99573.56;88173;280;137236;-73
2023/12/02 06:55:55;;;;;;;40.60;23.20;;;;;;;-0.06;100.00;99574.83;88938;274;22545;-74
2023/12/02 06:58:00;;;;;;;38.50;23.60;;;;;;;-0.09;100.00;99568.66;88828;280;138172;-72
2023/12/02 07:00:05;;;;;;;38.70;23.00;;;;;;;-0.11;100.00;99573.23;88989;281;25080;-69
2023/12/02 07:02:11;;;;;;;40.60;24.40;;;;;;;-0.19;100.00;99574.94;89061;276;24022;-75
2023/12/02 07:04:14;;;;;;;37.70;23.50;;;;;;;-0.26;100.00;99572.63;88957;281;136957;-73
2023/12/02 07:06:16;;;;;;;42.00;23.90;;;;;;;-0.33;100.00;99571.63;88868;274;22537;-68
2023/12/02 07:08:18;;;;;;;37.50;25.00;;;;;;;-0.37;100.00;99572.04;88949;277;138550;-71
2023/12/02 07:10:20;;;;;;;36.80;23.30;;;;;;;-0.40;100.00;99570.52;89316;281;22517;-73
2023/12/02 07:12:21;;;;;;;42.80;24.90;;;;;;;-0.43;100.00;99568.48;89081;282;137739;-70
2023/12/02 07:14:23;;;;;;;39.20;23.40;;;;;;;-0.46;100.00;99576.63;88914;277;22615;-71
2023/12/02 07:16:25;;;;;;;44.40;25.10;;;;;;;-0.47;100.00;99572.38;88678;281;137191;-68
2023/12/02 07:18:27;;;;;;;44.40;26.20;;;;;;;-0.45;100.00;99569.05;88343;273;22539;-72
2023/12/02 07:20:29;;;;;;;39.10;23.60;;;;;;;-0.41;100.00;99571.85;88287;273;137267;-72
2023/12/02 07:22:31;;;;;;;45.00;25.60;;;;;;;-0.34;100.00;99579.11;88450;277;22537;-71
2023/12/02 07:24:33;;;;;;;45.00;25.30;;;;;;;-0.30;100.00;99578.48;88331;274;137048;-72
2023/12/02 07:26:35;;;;;;;49.90;29.50;;;;;;;-0.25;100.00;99576.17;88416;273;24173;-70
2023/12/02 07:28:37;;;;;;;49.50;29.00;;;;;;;-0.14;100.00;99575.04;88453;273;138123;-72
2023/12/02 07:30:39;;;;;;;47.30;29.30;;;;;;;-0.06;100.00;99575.51;89118;281;22840;-74
2023/12/02 07:32:41;;;;;;;48.20;28.90;;;;;;;0.01;100.00;99576.11;88763;277;136872;-75
2023/12/02 07:34:43;;;;;;;46.90;28.50;;;;;;;0.07;100.00;99569.08;88978;273;22683;-72
2023/12/02 07:36:45;;;;;;;44.00;28.30;;;;;;;0.13;100.00;99563.33;89030;273;137531;-71
2023/12/02 07:38:47;;;;;;;41.30;27.30;;;;;;;0.18;100.00;99566.52;88936;275;22536;-71
2023/12/02 07:40:49;;;;;;;41.50;26.90;;;;;;;0.24;100.00;99565.64;88876;281;137891;-71
2023/12/02 07:42:51;;;;;;;40.80;25.20;;;;;;;0.29;100.00;99565.02;89193;277;22536;-72
2023/12/02 07:44:53;;;;;;;37.50;24.70;;;;;;;0.30;100.00;99566.48;89122;274;138040;-74
2023/12/02 07:46:55;;;;;;;34.90;23.10;;;;;;;0.32;100.00;99568.39;88963;274;25216;-74
2023/12/02 07:48:58;;;;;;;36.20;23.50;;;;;;;0.31;100.00;99565.02;88783;274;137826;-74
2023/12/02 07:51:03;;;;;;;32.30;20.70;;;;;;;0.29;100.00;99567.45;89170;281;22631;-70
2023/12/02 07:53:05;;;;;;;33.50;22.70;;;;;;;0.32;100.00;99564.19;88963;280;137347;-70
2023/12/02 07:55:08;;;;;;;31.90;20.70;;;;;;;0.34;100.00;99564.84;89293;281;22517;-71
2023/12/02 07:57:10;;;;;;;31.30;21.50;;;;;;;0.35;100.00;99563.73;88591;275;138529;-74
2023/12/02 07:59:12;;;;;;;27.60;17.20;;;;;;;0.36;100.00;99568.02;89085;282;22571;-78
2023/12/02 08:01:14;;;;;;;26.70;18.10;;;;;;;0.38;100.00;99563.48;88770;282;137027;-78
2023/12/02 08:03:16;;;;;;;25.70;16.30;;;;;;;0.40;100.00;99563.45;88684;274;22600;-81
2023/12/02 08:05:19;;;;;;;24.00;16.60;;;;;;;0.43;100.00;99562.02;88787;277;138246;-81
2023/12/02 08:07:24;;;;;;;25.50;16.30;;;;;;;0.43;100.00;99561.69;89512;273;24710;-80
2023/12/02 08:09:26;;;;;;;22.90;16.80;;;;;;;0.40;100.00;99559.27;89251;279;138250;-78
2023/12/02 08:11:29;;;;;;;23.40;16.20;;;;;;;0.38;100.00;99563.82;90027;277;24101;-74
2023/12/02 08:13:31;;;;;;;25.30;15.80;;;;;;;0.37;100.00;99559.73;89501;274;136693;-87
2023/12/02 08:15:33;;;;;;;25.00;16.20;;;;;;;0.28;100.00;99549.39;89658;274;24048;-86
2023/12/02 08:17:36;;;;;;;27.40;17.30;;;;;;;0.34;100.00;99562.98;89700;274;138321;-83
2023/12/02 08:19:38;;;;;;;23.20;15.20;;;;;;;0.35;100.00;99567.24;89912;282;22476;-79
2023/12/02 08:21:40;;;;;;;24.80;15.80;;;;;;;0.29;100.00;99555.23;89813;277;138052;-82
2023/12/02 08:23:42;;;;;;;25.20;16.20;;;;;;;0.38;100.00;99566.41;90406;273;23174;-79
2023/12/02 08:25:44;;;;;;;25.60;15.20;;;;;;;0.42;100.00;99570.13;89378;273;137499;-83
2023/12/02 08:27:46;;;;;;;23.00;16.10;;;;;;;0.41;100.00;99568.08;89683;281;22479;-78
2023/12/02 08:29:48;;;;;;;29.40;17.60;;;;;;;0.41;100.00;99569.67;89071;281;138111;-81
2023/12/02 08:31:50;;;;;;;23.50;16.70;;;;;;;0.42;100.00;99574.69;89895;282;22721;-81
2023/12/02 08:33:55;;;;;;;25.10;16.20;;;;;;;0.43;100.00;99574.05;90091;274;137180;-85
2023/12/02 08:35:58;;;;;;;21.40;14.20;;;;;;;0.42;100.00;99577.30;90185;283;23621;-81
2023/12/02 08:38:00;;;;;;;26.20;16.50;;;;;;;0.40;100.00;99581.83;88956;282;136266;-78
2023/12/02 08:40:05;;;;;;;26.50;16.70;;;;;;;0.37;100.00;99578.23;88961;274;22582;-78
2023/12/02 08:42:07;;;;;;;21.80;15.60;;;;;;;0.37;100.00;99574.71;88512;275;23264;-71
2023/12/02 08:44:09;;;;;;;26.20;16.40;;;;;;;0.35;100.00;99572.25;88252;273;137326;-73
2023/12/02 08:46:19;;;;;;;24.60;16.60;;;;;;;0.31;100.00;99566.34;88439;277;22544;-71
2023/12/02 08:48:21;;;;;;;23.70;17.00;;;;;;;0.27;100.00;99576.27;88457;281;137184;-70
2023/12/02 08:50:23;;;;;;;23.30;16.00;;;;;;;0.22;100.00;99573.39;88421;274;24797;-72
2023/12/02 08:52:26;;;;;;;26.50;15.90;;;;;;;0.16;100.00;99578.26;88223;275;137104;-72
2023/12/02 08:54:28;;;;;;;25.80;16.80;;;;;;;0.02;100.00;99563.93;88564;273;25236;-71
2023/12/02 08:56:30;;;;;;;27.30;17.50;;;;;;;0.11;100.00;99583.42;88221;274;138323;-70
2023/12/02 08:58:32;;;;;;;25.00;16.90;;;;;;;0.12;100.00;99588.71;88950;273;22530;-71
2023/12/02 09:00:35;;;;;;;22.90;15.80;;;;;;;0.06;100.00;99578.93;88171;279;137119;-69
2023/12/02 09:02:37;;;;;;;24.80;16.20;;;;;;;0.12;100.00;99591.39;88254;275;25143;-71
2023/12/02 09:04:39;;;;;;;22.60;15.80;;;;;;;0.10;100.00;99588.74;88291;274;136777;-70
2023/12/02 09:06:41;;;;;;;22.00;14.80;;;;;;;0.09;100.00;99594.96;88364;273;24395;-68
2023/12/02 09:08:42;;;;;;;21.60;14.70;;;;;;;0.09;100.00;99596.56;88221;273;137182;-70
2023/12/02 09:10:45;;;;;;;22.30;15.00;;;;;;;0.08;100.00;99605.33;88699;275;24173;-69
2023/12/02 09:12:47;;;;;;;24.50;16.90;;;;;;;0.08;100.00;99599.06;88175;279;136618;-72
2023/12/02 09:15:09;;;;;;;23.00;14.90;;;;;;;0.08;100.00;99598.70;88247;281;22536;-73
2023/12/02 09:17:48;;;;;;;24.00;16.00;;;;;;;0.10;100.00;99606.86;88179;274;136999;-72
2023/12/02 09:19:53;;;;;;;22.10;15.20;;;;;;;0.13;100.00;99611.53;88375;281;22837;-71
2023/12/02 09:21:56;;;;;;;20.30;14.60;;;;;;;0.15;100.00;99612.73;88535;274;137897;-73
2023/12/02 09:24:04;;;;;;;22.80;16.20;;;;;;;0.16;100.00;99608.08;88355;274;22552;-71
2023/12/02 09:26:26;;;;;;;22.80;16.00;;;;;;;0.18;100.00;99598.64;88260;275;25210;-71
2023/12/02 09:28:29;;;;;;;24.30;15.70;;;;;;;0.19;100.00;99588.58;88384;279;137043;-71